sensor_id;sensor_type;location;lat;lon;timestamp;temperature;humidity
35377;DHT22;21480;51.642;4.834;2022-08-01T00:00:25;18.90;99.90
35377;DHT22;21480;51.642;4.834;2022-08-01T00:02:51;18.80;99.90
35377;DHT22;21480;51.642;4.834;2022-08-01T00:05:17;18.80;99.90
35377;DHT22;21480;51.642;4.834;2022-08-01T00:07:43;18.80;99.90
35377;DHT22;21480;51.642;4.834;2022-08-01T00:10:11;18.80;99.90
35377;DHT22;21480;51.642;4.834;2022-08-01T00:12:38;18.70;99.90
35377;DHT22;21480;51.642;4.834;2022-08-01T00:15:05;18.70;99.90
35377;DHT22;21480;51.642;4.834;2022-08-01T00:17:31;18.70;99.90
35377;DHT22;21480;51.642;4.834;2022-08-01T00:20:00;18.70;99.90
35377;DHT22;21480;51.642;4.834;2022-08-01T00:22:27;18.60;99.90
35377;DHT22;21480;51.642;4.834;2022-08-01T00:24:54;18.60;99.90
35377;DHT22;21480;51.642;4.834;2022-08-01T00:27:20;18.60;99.90
35377;DHT22;21480;51.642;4.834;2022-08-01T00:29:46;18.50;99.90
35377;DHT22;21480;51.642;4.834;2022-08-01T00:32:11;18.60;99.90
35377;DHT22;21480;51.642;4.834;2022-08-01T00:34:37;18.50;99.90
35377;DHT22;21480;51.642;4.834;2022-08-01T00:37:03;18.50;99.90
35377;DHT22;21480;51.642;4.834;2022-08-01T00:39:28;18.50;99.90
35377;DHT22;21480;51.642;4.834;2022-08-01T00:41:54;18.50;99.90
35377;DHT22;21480;51.642;4.834;2022-08-01T00:44:20;18.50;99.90
35377;DHT22;21480;51.642;4.834;2022-08-01T00:46:46;18.50;99.90
35377;DHT22;21480;51.642;4.834;2022-08-01T00:49:11;18.50;99.90
35377;DHT22;21480;51.642;4.834;2022-08-01T00:51:38;18.50;99.90
35377;DHT22;21480;51.642;4.834;2022-08-01T00:54:04;18.40;99.90
35377;DHT22;21480;51.642;4.834;2022-08-01T00:56:30;18.40;99.90
35377;DHT22;21480;51.642;4.834;2022-08-01T00:58:56;18.50;99.90
35377;DHT22;21480;51.642;4.834;2022-08-01T01:01:22;18.40;99.90
35377;DHT22;21480;51.642;4.834;2022-08-01T01:03:52;18.40;99.90
35377;DHT22;21480;51.642;4.834;2022-08-01T01:06:28;18.40;99.90
35377;DHT22;21480;51.642;4.834;2022-08-01T01:11:49;18.40;99.90
35377;DHT22;21480;51.642;4.834;2022-08-01T01:17:17;18.40;99.90
35377;DHT22;21480;51.642;4.834;2022-08-01T01:19:48;18.30;99.90
35377;DHT22;21480;51.642;4.834;2022-08-01T01:30:53;18.20;99.90
35377;DHT22;21480;51.642;4.834;2022-08-01T01:33:21;18.20;99.90
35377;DHT22;21480;51.642;4.834;2022-08-01T01:35:51;18.20;99.90
35377;DHT22;21480;51.642;4.834;2022-08-01T01:38:21;18.20;99.90
35377;DHT22;21480;51.642;4.834;2022-08-01T01:40:48;18.20;99.90
35377;DHT22;21480;51.642;4.834;2022-08-01T01:43:15;18.20;99.90
35377;DHT22;21480;51.642;4.834;2022-08-01T01:45:42;18.10;99.90
35377;DHT22;21480;51.642;4.834;2022-08-01T01:48:10;18.10;99.90
35377;DHT22;21480;51.642;4.834;2022-08-01T01:50:37;18.10;99.90
35377;DHT22;21480;51.642;4.834;2022-08-01T01:53:04;18.10;99.90
35377;DHT22;21480;51.642;4.834;2022-08-01T01:55:32;18.10;99.90
35377;DHT22;21480;51.642;4.834;2022-08-01T01:58:00;18.10;99.90
35377;DHT22;21480;51.642;4.834;2022-08-01T02:00:27;18.10;99.90
35377;DHT22;21480;51.642;4.834;2022-08-01T02:02:55;18.10;99.90
35377;DHT22;21480;51.642;4.834;2022-08-01T02:05:22;18.10;99.90
35377;DHT22;21480;51.642;4.834;2022-08-01T02:07:50;18.10;99.90
35377;DHT22;21480;51.642;4.834;2022-08-01T02:10:18;18.10;99.90
35377;DHT22;21480;51.642;4.834;2022-08-01T02:12:46;18.10;99.90
35377;DHT22;21480;51.642;4.834;2022-08-01T02:15:14;18.10;99.90
35377;DHT22;21480;51.642;4.834;2022-08-01T02:17:45;18.10;99.90
35377;DHT22;21480;51.642;4.834;2022-08-01T02:20:13;18.10;99.90
35377;DHT22;21480;51.642;4.834;2022-08-01T02:22:52;18.10;99.90
35377;DHT22;21480;51.642;4.834;2022-08-01T02:25:22;18.10;99.90
35377;DHT22;21480;51.642;4.834;2022-08-01T02:30:24;18.10;99.90
35377;DHT22;21480;51.642;4.834;2022-08-01T02:32:59;18.10;99.90
35377;DHT22;21480;51.642;4.834;2022-08-01T02:35:30;18.10;99.90
35377;DHT22;21480;51.642;4.834;2022-08-01T02:37:58;18.00;99.90
35377;DHT22;21480;51.642;4.834;2022-08-01T02:40:31;18.00;99.90
35377;DHT22;21480;51.642;4.834;2022-08-01T02:42:59;18.00;99.90
35377;DHT22;21480;51.642;4.834;2022-08-01T02:45:26;18.00;99.90
35377;DHT22;21480;51.642;4.834;2022-08-01T02:47:59;18.00;99.90
35377;DHT22;21480;51.642;4.834;2022-08-01T02:50:28;18.00;99.90
35377;DHT22;21480;51.642;4.834;2022-08-01T02:52:55;18.00;99.90
35377;DHT22;21480;51.642;4.834;2022-08-01T02:55:22;18.00;99.90
35377;DHT22;21480;51.642;4.834;2022-08-01T02:57:49;17.90;99.90
35377;DHT22;21480;51.642;4.834;2022-08-01T03:00:17;17.90;99.90
35377;DHT22;21480;51.642;4.834;2022-08-01T03:02:44;17.80;99.90
35377;DHT22;21480;51.642;4.834;2022-08-01T03:05:17;17.80;99.90
35377;DHT22;21480;51.642;4.834;2022-08-01T03:07:43;17.80;99.90
35377;DHT22;21480;51.642;4.834;2022-08-01T03:10:09;17.80;99.90
35377;DHT22;21480;51.642;4.834;2022-08-01T03:12:36;17.80;99.90
35377;DHT22;21480;51.642;4.834;2022-08-01T03:15:04;17.80;99.90
35377;DHT22;21480;51.642;4.834;2022-08-01T03:17:31;17.80;99.90
35377;DHT22;21480;51.642;4.834;2022-08-01T03:20:00;17.90;99.90
35377;DHT22;21480;51.642;4.834;2022-08-01T03:22:29;17.90;99.90
35377;DHT22;21480;51.642;4.834;2022-08-01T03:24:56;17.90;99.90
35377;DHT22;21480;51.642;4.834;2022-08-01T03:27:24;17.90;99.90
35377;DHT22;21480;51.642;4.834;2022-08-01T03:29:55;17.90;99.90
35377;DHT22;21480;51.642;4.834;2022-08-01T03:32:22;17.90;99.90
35377;DHT22;21480;51.642;4.834;2022-08-01T03:34:48;17.90;99.90
35377;DHT22;21480;51.642;4.834;2022-08-01T03:37:27;17.90;99.90
35377;DHT22;21480;51.642;4.834;2022-08-01T03:40:02;17.90;99.90
35377;DHT22;21480;51.642;4.834;2022-08-01T03:42:37;17.90;99.90
35377;DHT22;21480;51.642;4.834;2022-08-01T03:45:13;17.90;99.90
35377;DHT22;21480;51.642;4.834;2022-08-01T03:47:43;17.80;99.90
35377;DHT22;21480;51.642;4.834;2022-08-01T03:50:11;17.80;99.90
35377;DHT22;21480;51.642;4.834;2022-08-01T03:52:39;17.80;99.90
35377;DHT22;21480;51.642;4.834;2022-08-01T03:55:07;17.80;99.90
35377;DHT22;21480;51.642;4.834;2022-08-01T03:57:38;17.80;99.90
35377;DHT22;21480;51.642;4.834;2022-08-01T04:00:06;17.80;99.90
35377;DHT22;21480;51.642;4.834;2022-08-01T04:02:35;17.80;99.90
35377;DHT22;21480;51.642;4.834;2022-08-01T04:05:02;17.80;99.90
35377;DHT22;21480;51.642;4.834;2022-08-01T04:07:33;17.80;99.90
35377;DHT22;21480;51.642;4.834;2022-08-01T04:10:03;17.80;99.90
35377;DHT22;21480;51.642;4.834;2022-08-01T04:12:29;17.80;99.90
35377;DHT22;21480;51.642;4.834;2022-08-01T04:14:54;17.80;99.90
35377;DHT22;21480;51.642;4.834;2022-08-01T04:17:20;17.80;99.90
35377;DHT22;21480;51.642;4.834;2022-08-01T04:19:46;17.80;99.90
35377;DHT22;21480;51.642;4.834;2022-08-01T04:22:13;17.80;99.90
35377;DHT22;21480;51.642;4.834;2022-08-01T04:24:44;17.80;99.90
35377;DHT22;21480;51.642;4.834;2022-08-01T04:27:13;17.80;99.90
35377;DHT22;21480;51.642;4.834;2022-08-01T04:29:41;17.80;99.90
35377;DHT22;21480;51.642;4.834;2022-08-01T04:32:08;17.90;99.90
35377;DHT22;21480;51.642;4.834;2022-08-01T04:34:38;17.80;99.90
35377;DHT22;21480;51.642;4.834;2022-08-01T04:37:08;17.80;99.90
35377;DHT22;21480;51.642;4.834;2022-08-01T04:39:35;17.80;99.90
35377;DHT22;21480;51.642;4.834;2022-08-01T04:42:04;17.80;99.90
35377;DHT22;21480;51.642;4.834;2022-08-01T04:44:31;17.70;99.90
35377;DHT22;21480;51.642;4.834;2022-08-01T04:46:59;17.70;99.90
35377;DHT22;21480;51.642;4.834;2022-08-01T04:49:27;17.70;99.90
35377;DHT22;21480;51.642;4.834;2022-08-01T04:51:55;17.70;99.90
35377;DHT22;21480;51.642;4.834;2022-08-01T04:54:26;17.70;99.90
35377;DHT22;21480;51.642;4.834;2022-08-01T04:56:59;17.70;99.90
35377;DHT22;21480;51.642;4.834;2022-08-01T04:59:29;17.80;99.90
35377;DHT22;21480;51.642;4.834;2022-08-01T05:02:15;17.80;99.90
35377;DHT22;21480;51.642;4.834;2022-08-01T05:04:42;17.90;99.90
35377;DHT22;21480;51.642;4.834;2022-08-01T05:07:09;18.00;99.90
35377;DHT22;21480;51.642;4.834;2022-08-01T05:09:35;18.10;99.90
35377;DHT22;21480;51.642;4.834;2022-08-01T05:12:03;18.10;99.90
35377;DHT22;21480;51.642;4.834;2022-08-01T05:14:29;18.20;99.90
35377;DHT22;21480;51.642;4.834;2022-08-01T05:16:59;18.30;99.90
35377;DHT22;21480;51.642;4.834;2022-08-01T05:19:29;18.40;99.90
35377;DHT22;21480;51.642;4.834;2022-08-01T05:21:56;18.60;99.90
35377;DHT22;21480;51.642;4.834;2022-08-01T05:24:21;18.60;99.90
35377;DHT22;21480;51.642;4.834;2022-08-01T05:26:48;18.70;99.90
35377;DHT22;21480;51.642;4.834;2022-08-01T05:29:15;18.70;99.90
35377;DHT22;21480;51.642;4.834;2022-08-01T05:31:41;18.80;99.90
35377;DHT22;21480;51.642;4.834;2022-08-01T05:34:06;18.90;99.90
35377;DHT22;21480;51.642;4.834;2022-08-01T05:36:32;18.90;99.90
35377;DHT22;21480;51.642;4.834;2022-08-01T05:38:58;18.90;99.90
35377;DHT22;21480;51.642;4.834;2022-08-01T05:41:24;18.80;99.90
35377;DHT22;21480;51.642;4.834;2022-08-01T05:43:49;18.70;99.90
35377;DHT22;21480;51.642;4.834;2022-08-01T05:46:15;18.60;99.90
35377;DHT22;21480;51.642;4.834;2022-08-01T05:48:41;18.60;99.90
35377;DHT22;21480;51.642;4.834;2022-08-01T05:51:06;18.60;99.90
35377;DHT22;21480;51.642;4.834;2022-08-01T05:53:32;18.60;99.90
35377;DHT22;21480;51.642;4.834;2022-08-01T05:56:00;18.60;99.90
35377;DHT22;21480;51.642;4.834;2022-08-01T05:58:26;18.60;99.90
35377;DHT22;21480;51.642;4.834;2022-08-01T06:00:52;18.60;99.90
35377;DHT22;21480;51.642;4.834;2022-08-01T06:03:18;18.50;99.90
35377;DHT22;21480;51.642;4.834;2022-08-01T06:05:44;18.50;99.90
35377;DHT22;21480;51.642;4.834;2022-08-01T06:08:10;18.50;99.90
35377;DHT22;21480;51.642;4.834;2022-08-01T06:10:35;18.40;99.90
35377;DHT22;21480;51.642;4.834;2022-08-01T06:13:01;18.40;99.90
35377;DHT22;21480;51.642;4.834;2022-08-01T06:15:32;18.50;99.90
35377;DHT22;21480;51.642;4.834;2022-08-01T06:17:58;18.60;99.90
35377;DHT22;21480;51.642;4.834;2022-08-01T06:20:24;18.70;99.90
35377;DHT22;21480;51.642;4.834;2022-08-01T06:22:49;18.70;99.90
35377;DHT22;21480;51.642;4.834;2022-08-01T06:25:17;18.70;99.90
35377;DHT22;21480;51.642;4.834;2022-08-01T06:27:44;18.70;99.90
35377;DHT22;21480;51.642;4.834;2022-08-01T06:30:10;18.70;99.90
35377;DHT22;21480;51.642;4.834;2022-08-01T06:32:36;18.80;99.90
35377;DHT22;21480;51.642;4.834;2022-08-01T06:35:01;18.90;99.90
35377;DHT22;21480;51.642;4.834;2022-08-01T06:37:31;19.00;99.90
35377;DHT22;21480;51.642;4.834;2022-08-01T06:40:05;19.00;99.90
35377;DHT22;21480;51.642;4.834;2022-08-01T06:42:34;19.10;99.90
35377;DHT22;21480;51.642;4.834;2022-08-01T06:45:11;19.30;99.90
35377;DHT22;21480;51.642;4.834;2022-08-01T06:47:38;19.60;99.90
35377;DHT22;21480;51.642;4.834;2022-08-01T06:50:05;19.90;99.90
35377;DHT22;21480;51.642;4.834;2022-08-01T06:52:31;20.10;99.90
35377;DHT22;21480;51.642;4.834;2022-08-01T06:54:57;20.30;99.90
35377;DHT22;21480;51.642;4.834;2022-08-01T06:57:23;20.40;99.90
35377;DHT22;21480;51.642;4.834;2022-08-01T06:59:49;20.50;99.90
35377;DHT22;21480;51.642;4.834;2022-08-01T07:02:15;20.70;99.90
35377;DHT22;21480;51.642;4.834;2022-08-01T07:04:40;20.80;99.90
35377;DHT22;21480;51.642;4.834;2022-08-01T07:07:06;20.80;99.90
35377;DHT22;21480;51.642;4.834;2022-08-01T07:09:32;21.00;99.90
35377;DHT22;21480;51.642;4.834;2022-08-01T07:11:58;21.10;99.90
35377;DHT22;21480;51.642;4.834;2022-08-01T07:14:24;21.30;99.90
35377;DHT22;21480;51.642;4.834;2022-08-01T07:16:50;21.50;99.90
35377;DHT22;21480;51.642;4.834;2022-08-01T07:19:16;21.70;99.90
35377;DHT22;21480;51.642;4.834;2022-08-01T07:21:42;21.90;99.90
35377;DHT22;21480;51.642;4.834;2022-08-01T07:24:10;22.00;99.90
35377;DHT22;21480;51.642;4.834;2022-08-01T07:26:38;22.00;99.90
35377;DHT22;21480;51.642;4.834;2022-08-01T07:29:04;22.00;99.90
35377;DHT22;21480;51.642;4.834;2022-08-01T07:31:29;21.80;99.90
35377;DHT22;21480;51.642;4.834;2022-08-01T07:33:55;21.80;99.90
35377;DHT22;21480;51.642;4.834;2022-08-01T07:36:21;21.70;99.90
35377;DHT22;21480;51.642;4.834;2022-08-01T07:38:47;21.60;99.90
35377;DHT22;21480;51.642;4.834;2022-08-01T07:41:16;21.50;99.90
35377;DHT22;21480;51.642;4.834;2022-08-01T07:43:41;21.50;99.90
35377;DHT22;21480;51.642;4.834;2022-08-01T07:46:07;21.50;99.90
35377;DHT22;21480;51.642;4.834;2022-08-01T07:48:33;21.60;99.90
35377;DHT22;21480;51.642;4.834;2022-08-01T07:50:58;21.70;99.90
35377;DHT22;21480;51.642;4.834;2022-08-01T07:53:24;21.80;99.90
35377;DHT22;21480;51.642;4.834;2022-08-01T07:55:50;21.90;99.90
35377;DHT22;21480;51.642;4.834;2022-08-01T07:58:16;22.10;99.90
35377;DHT22;21480;51.642;4.834;2022-08-01T08:00:42;22.40;99.90
35377;DHT22;21480;51.642;4.834;2022-08-01T08:03:08;22.70;99.90
35377;DHT22;21480;51.642;4.834;2022-08-01T08:05:34;22.70;99.90
35377;DHT22;21480;51.642;4.834;2022-08-01T08:08:09;22.60;99.90
35377;DHT22;21480;51.642;4.834;2022-08-01T08:10:39;22.80;99.90
35377;DHT22;21480;51.642;4.834;2022-08-01T08:13:05;22.60;99.90
35377;DHT22;21480;51.642;4.834;2022-08-01T08:15:30;22.30;99.90
35377;DHT22;21480;51.642;4.834;2022-08-01T08:17:56;22.20;99.90
35377;DHT22;21480;51.642;4.834;2022-08-01T08:20:22;22.20;99.90
35377;DHT22;21480;51.642;4.834;2022-08-01T08:22:51;22.30;99.90
35377;DHT22;21480;51.642;4.834;2022-08-01T08:25:19;22.40;99.90
35377;DHT22;21480;51.642;4.834;2022-08-01T08:27:46;22.50;99.90
35377;DHT22;21480;51.642;4.834;2022-08-01T08:30:12;22.50;99.90
35377;DHT22;21480;51.642;4.834;2022-08-01T08:32:38;22.50;99.90
35377;DHT22;21480;51.642;4.834;2022-08-01T08:35:05;22.60;99.90
35377;DHT22;21480;51.642;4.834;2022-08-01T08:37:31;22.90;99.90
35377;DHT22;21480;51.642;4.834;2022-08-01T08:39:57;23.20;99.90
35377;DHT22;21480;51.642;4.834;2022-08-01T08:42:23;23.30;99.90
35377;DHT22;21480;51.642;4.834;2022-08-01T08:44:49;23.40;99.90
35377;DHT22;21480;51.642;4.834;2022-08-01T08:47:15;23.40;99.90
35377;DHT22;21480;51.642;4.834;2022-08-01T08:49:43;23.40;99.90
35377;DHT22;21480;51.642;4.834;2022-08-01T08:52:09;23.10;99.90
35377;DHT22;21480;51.642;4.834;2022-08-01T08:54:37;22.60;99.90
35377;DHT22;21480;51.642;4.834;2022-08-01T08:57:04;22.40;99.90
35377;DHT22;21480;51.642;4.834;2022-08-01T08:59:31;22.30;99.90
35377;DHT22;21480;51.642;4.834;2022-08-01T09:01:58;22.00;99.90
35377;DHT22;21480;51.642;4.834;2022-08-01T09:04:24;21.90;99.90
35377;DHT22;21480;51.642;4.834;2022-08-01T09:06:50;22.00;99.90
35377;DHT22;21480;51.642;4.834;2022-08-01T09:09:17;22.10;99.90
35377;DHT22;21480;51.642;4.834;2022-08-01T09:11:43;22.10;99.90
35377;DHT22;21480;51.642;4.834;2022-08-01T09:14:11;22.20;99.90
35377;DHT22;21480;51.642;4.834;2022-08-01T09:16:40;22.30;99.90
35377;DHT22;21480;51.642;4.834;2022-08-01T09:21:33;22.40;99.90
35377;DHT22;21480;51.642;4.834;2022-08-01T09:23:58;22.60;99.90
35377;DHT22;21480;51.642;4.834;2022-08-01T09:26:30;22.70;99.90
35377;DHT22;21480;51.642;4.834;2022-08-01T09:28:56;22.90;99.90
35377;DHT22;21480;51.642;4.834;2022-08-01T09:31:22;22.60;99.90
35377;DHT22;21480;51.642;4.834;2022-08-01T09:33:54;22.30;99.90
35377;DHT22;21480;51.642;4.834;2022-08-01T09:36:23;22.40;99.90
35377;DHT22;21480;51.642;4.834;2022-08-01T09:38:50;22.40;99.90
35377;DHT22;21480;51.642;4.834;2022-08-01T09:41:17;22.40;99.90
35377;DHT22;21480;51.642;4.834;2022-08-01T09:43:50;22.30;99.90
35377;DHT22;21480;51.642;4.834;2022-08-01T09:46:16;22.10;99.90
35377;DHT22;21480;51.642;4.834;2022-08-01T09:48:55;22.30;99.90
35377;DHT22;21480;51.642;4.834;2022-08-01T09:51:30;22.50;99.90
35377;DHT22;21480;51.642;4.834;2022-08-01T09:53:56;22.50;99.90
35377;DHT22;21480;51.642;4.834;2022-08-01T09:56:23;22.30;99.90
35377;DHT22;21480;51.642;4.834;2022-08-01T09:58:56;22.20;99.90
35377;DHT22;21480;51.642;4.834;2022-08-01T10:01:22;22.10;99.90
35377;DHT22;21480;51.642;4.834;2022-08-01T10:04:13;22.30;99.90
35377;DHT22;21480;51.642;4.834;2022-08-01T10:06:40;22.30;99.90
35377;DHT22;21480;51.642;4.834;2022-08-01T10:09:08;22.20;99.90
35377;DHT22;21480;51.642;4.834;2022-08-01T10:11:35;22.20;99.90
35377;DHT22;21480;51.642;4.834;2022-08-01T10:14:04;22.30;99.90
35377;DHT22;21480;51.642;4.834;2022-08-01T10:16:32;22.50;99.90
35377;DHT22;21480;51.642;4.834;2022-08-01T10:18:59;22.70;99.90
35377;DHT22;21480;51.642;4.834;2022-08-01T10:21:27;22.70;99.90
35377;DHT22;21480;51.642;4.834;2022-08-01T10:23:55;22.80;99.90
35377;DHT22;21480;51.642;4.834;2022-08-01T10:26:26;22.90;99.90
35377;DHT22;21480;51.642;4.834;2022-08-01T10:28:52;22.80;99.90
35377;DHT22;21480;51.642;4.834;2022-08-01T10:31:19;22.80;99.90
35377;DHT22;21480;51.642;4.834;2022-08-01T10:33:45;22.80;99.90
35377;DHT22;21480;51.642;4.834;2022-08-01T10:36:11;23.00;99.90
35377;DHT22;21480;51.642;4.834;2022-08-01T10:38:37;23.20;99.90
35377;DHT22;21480;51.642;4.834;2022-08-01T10:41:04;23.50;99.90
35377;DHT22;21480;51.642;4.834;2022-08-01T10:43:33;23.40;99.90
35377;DHT22;21480;51.642;4.834;2022-08-01T10:45:59;23.40;99.90
35377;DHT22;21480;51.642;4.834;2022-08-01T10:49:02;23.50;99.90
35377;DHT22;21480;51.642;4.834;2022-08-01T10:51:38;23.60;99.90
35377;DHT22;21480;51.642;4.834;2022-08-01T10:54:09;23.40;99.90
35377;DHT22;21480;51.642;4.834;2022-08-01T10:56:54;23.60;99.90
35377;DHT22;21480;51.642;4.834;2022-08-01T10:59:30;23.80;99.90
35377;DHT22;21480;51.642;4.834;2022-08-01T11:02:02;24.00;99.90
35377;DHT22;21480;51.642;4.834;2022-08-01T11:04:44;23.70;99.90
35377;DHT22;21480;51.642;4.834;2022-08-01T11:07:23;23.80;99.90
35377;DHT22;21480;51.642;4.834;2022-08-01T11:10:05;23.90;99.90
35377;DHT22;21480;51.642;4.834;2022-08-01T11:12:42;23.80;99.90
35377;DHT22;21480;51.642;4.834;2022-08-01T11:17:40;24.10;99.90
35377;DHT22;21480;51.642;4.834;2022-08-01T11:20:20;24.00;99.90
35377;DHT22;21480;51.642;4.834;2022-08-01T11:30:45;24.50;99.90
35377;DHT22;21480;51.642;4.834;2022-08-01T11:33:12;24.60;99.90
35377;DHT22;21480;51.642;4.834;2022-08-01T11:44:02;25.50;99.90
35377;DHT22;21480;51.642;4.834;2022-08-01T11:52:03;25.60;99.90
35377;DHT22;21480;51.642;4.834;2022-08-01T11:54:31;25.70;99.90
35377;DHT22;21480;51.642;4.834;2022-08-01T11:57:00;26.00;99.90
35377;DHT22;21480;51.642;4.834;2022-08-01T12:01:52;26.30;99.90
35377;DHT22;21480;51.642;4.834;2022-08-01T12:04:18;25.80;99.90
35377;DHT22;21480;51.642;4.834;2022-08-01T12:06:44;25.40;99.90
35377;DHT22;21480;51.642;4.834;2022-08-01T12:09:21;25.30;99.90
35377;DHT22;21480;51.642;4.834;2022-08-01T12:11:47;25.40;99.90
35377;DHT22;21480;51.642;4.834;2022-08-01T12:14:19;25.70;99.90
35377;DHT22;21480;51.642;4.834;2022-08-01T12:16:53;25.90;99.90
35377;DHT22;21480;51.642;4.834;2022-08-01T12:19:23;26.10;99.90
35377;DHT22;21480;51.642;4.834;2022-08-01T12:24:30;26.80;99.90
35377;DHT22;21480;51.642;4.834;2022-08-01T12:26:56;26.80;99.90
35377;DHT22;21480;51.642;4.834;2022-08-01T12:29:36;26.90;99.90
35377;DHT22;21480;51.642;4.834;2022-08-01T12:32:04;27.10;99.90
35377;DHT22;21480;51.642;4.834;2022-08-01T12:34:30;27.50;99.90
35377;DHT22;21480;51.642;4.834;2022-08-01T12:37:00;27.70;99.90
35377;DHT22;21480;51.642;4.834;2022-08-01T12:39:34;27.80;99.90
35377;DHT22;21480;51.642;4.834;2022-08-01T12:42:00;27.20;99.90
35377;DHT22;21480;51.642;4.834;2022-08-01T12:44:30;27.20;99.90
35377;DHT22;21480;51.642;4.834;2022-08-01T12:46:56;27.30;99.90
35377;DHT22;21480;51.642;4.834;2022-08-01T12:49:22;27.60;99.90
35377;DHT22;21480;51.642;4.834;2022-08-01T12:51:49;27.80;99.90
35377;DHT22;21480;51.642;4.834;2022-08-01T12:54:15;28.20;99.90
35377;DHT22;21480;51.642;4.834;2022-08-01T12:56:41;28.90;99.90
35377;DHT22;21480;51.642;4.834;2022-08-01T12:59:27;29.60;99.90
35377;DHT22;21480;51.642;4.834;2022-08-01T13:01:55;29.70;99.90
35377;DHT22;21480;51.642;4.834;2022-08-01T13:04:22;29.40;99.90
35377;DHT22;21480;51.642;4.834;2022-08-01T13:06:54;29.60;99.90
35377;DHT22;21480;51.642;4.834;2022-08-01T13:09:19;29.10;99.90
35377;DHT22;21480;51.642;4.834;2022-08-01T13:11:45;28.40;99.90
35377;DHT22;21480;51.642;4.834;2022-08-01T13:14:28;27.60;99.90
35377;DHT22;21480;51.642;4.834;2022-08-01T13:16:54;27.00;99.90
35377;DHT22;21480;51.642;4.834;2022-08-01T13:19:20;26.90;99.90
35377;DHT22;21480;51.642;4.834;2022-08-01T13:21:56;27.30;99.90
35377;DHT22;21480;51.642;4.834;2022-08-01T13:24:31;28.20;99.90
35377;DHT22;21480;51.642;4.834;2022-08-01T13:27:02;29.60;99.90
35377;DHT22;21480;51.642;4.834;2022-08-01T13:29:37;30.10;99.90
35377;DHT22;21480;51.642;4.834;2022-08-01T13:32:17;30.30;98.90
35377;DHT22;21480;51.642;4.834;2022-08-01T13:34:43;30.30;99.00
35377;DHT22;21480;51.642;4.834;2022-08-01T13:37:09;30.00;99.00
35377;DHT22;21480;51.642;4.834;2022-08-01T13:39:35;30.10;98.40
35377;DHT22;21480;51.642;4.834;2022-08-01T13:42:16;29.80;97.90
35377;DHT22;21480;51.642;4.834;2022-08-01T13:44:42;29.70;98.80
35377;DHT22;21480;51.642;4.834;2022-08-01T13:47:11;30.40;98.80
35377;DHT22;21480;51.642;4.834;2022-08-01T13:49:36;31.60;97.30
35377;DHT22;21480;51.642;4.834;2022-08-01T13:52:03;32.10;94.20
35377;DHT22;21480;51.642;4.834;2022-08-01T13:54:29;30.90;94.70
35377;DHT22;21480;51.642;4.834;2022-08-01T13:56:55;30.20;94.20
35377;DHT22;21480;51.642;4.834;2022-08-01T13:59:21;30.50;95.80
35377;DHT22;21480;51.642;4.834;2022-08-01T14:01:46;31.20;92.90
35377;DHT22;21480;51.642;4.834;2022-08-01T14:04:12;32.10;93.00
35377;DHT22;21480;51.642;4.834;2022-08-01T14:09:05;32.70;87.20
35377;DHT22;21480;51.642;4.834;2022-08-01T14:11:31;31.90;86.70
35377;DHT22;21480;51.642;4.834;2022-08-01T14:13:57;30.60;89.90
35377;DHT22;21480;51.642;4.834;2022-08-01T14:16:23;29.70;91.20
35377;DHT22;21480;51.642;4.834;2022-08-01T14:18:49;29.30;94.00
35377;DHT22;21480;51.642;4.834;2022-08-01T14:21:15;30.30;91.80
35377;DHT22;21480;51.642;4.834;2022-08-01T14:23:41;30.40;91.30
35377;DHT22;21480;51.642;4.834;2022-08-01T14:26:10;31.10;90.20
35377;DHT22;21480;51.642;4.834;2022-08-01T14:28:37;31.50;89.10
35377;DHT22;21480;51.642;4.834;2022-08-01T14:31:04;32.60;84.50
35377;DHT22;21480;51.642;4.834;2022-08-01T14:33:31;32.80;80.00
35377;DHT22;21480;51.642;4.834;2022-08-01T14:35:57;31.70;82.60
35377;DHT22;21480;51.642;4.834;2022-08-01T14:38:23;30.80;85.00
35377;DHT22;21480;51.642;4.834;2022-08-01T14:40:49;31.50;86.30
35377;DHT22;21480;51.642;4.834;2022-08-01T14:43:18;32.00;83.60
35377;DHT22;21480;51.642;4.834;2022-08-01T14:45:44;31.80;80.80
35377;DHT22;21480;51.642;4.834;2022-08-01T14:48:10;31.90;81.10
35377;DHT22;21480;51.642;4.834;2022-08-01T14:50:36;32.50;82.10
35377;DHT22;21480;51.642;4.834;2022-08-01T14:53:01;33.40;78.30
35377;DHT22;21480;51.642;4.834;2022-08-01T14:55:27;34.00;76.10
35377;DHT22;21480;51.642;4.834;2022-08-01T14:57:53;34.10;75.30
35377;DHT22;21480;51.642;4.834;2022-08-01T15:00:19;33.60;74.00
35377;DHT22;21480;51.642;4.834;2022-08-01T15:02:45;33.20;73.00
35377;DHT22;21480;51.642;4.834;2022-08-01T15:05:11;33.20;77.00
35377;DHT22;21480;51.642;4.834;2022-08-01T15:07:37;34.20;72.80
35377;DHT22;21480;51.642;4.834;2022-08-01T15:10:04;34.40;69.70
35377;DHT22;21480;51.642;4.834;2022-08-01T15:12:30;34.30;70.80
35377;DHT22;21480;51.642;4.834;2022-08-01T15:14:55;34.80;68.70
35377;DHT22;21480;51.642;4.834;2022-08-01T15:17:25;34.40;69.60
35377;DHT22;21480;51.642;4.834;2022-08-01T15:19:54;33.40;71.20
35377;DHT22;21480;51.642;4.834;2022-08-01T15:22:21;33.10;68.00
35377;DHT22;21480;51.642;4.834;2022-08-01T15:24:47;33.30;68.00
35377;DHT22;21480;51.642;4.834;2022-08-01T15:27:13;33.80;72.10
35377;DHT22;21480;51.642;4.834;2022-08-01T15:29:39;34.30;65.70
35377;DHT22;21480;51.642;4.834;2022-08-01T15:32:06;34.30;68.40
35377;DHT22;21480;51.642;4.834;2022-08-01T15:34:36;34.30;67.90
35377;DHT22;21480;51.642;4.834;2022-08-01T15:37:03;34.20;65.40
35377;DHT22;21480;51.642;4.834;2022-08-01T15:39:30;33.60;65.70
35377;DHT22;21480;51.642;4.834;2022-08-01T15:42:01;33.50;65.20
35377;DHT22;21480;51.642;4.834;2022-08-01T15:44:28;33.50;66.50
35377;DHT22;21480;51.642;4.834;2022-08-01T15:46:57;33.70;65.20
35377;DHT22;21480;51.642;4.834;2022-08-01T15:49:22;33.50;66.60
35377;DHT22;21480;51.642;4.834;2022-08-01T15:51:49;33.90;64.80
35377;DHT22;21480;51.642;4.834;2022-08-01T15:54:16;34.20;64.20
35377;DHT22;21480;51.642;4.834;2022-08-01T15:56:42;34.60;62.60
35377;DHT22;21480;51.642;4.834;2022-08-01T15:59:08;34.80;62.90
35377;DHT22;21480;51.642;4.834;2022-08-01T16:01:34;34.80;61.10
35377;DHT22;21480;51.642;4.834;2022-08-01T16:04:01;34.70;60.70
35377;DHT22;21480;51.642;4.834;2022-08-01T16:06:27;34.50;62.40
35377;DHT22;21480;51.642;4.834;2022-08-01T16:08:52;34.60;62.50
35377;DHT22;21480;51.642;4.834;2022-08-01T16:11:19;34.70;60.80
35377;DHT22;21480;51.642;4.834;2022-08-01T16:13:45;34.80;60.30
35377;DHT22;21480;51.642;4.834;2022-08-01T16:16:13;34.90;59.50
35377;DHT22;21480;51.642;4.834;2022-08-01T16:18:41;35.10;59.20
35377;DHT22;21480;51.642;4.834;2022-08-01T16:21:07;35.50;59.50
35377;DHT22;21480;51.642;4.834;2022-08-01T16:23:33;34.80;57.90
35377;DHT22;21480;51.642;4.834;2022-08-01T16:25:59;34.20;57.20